Fair Play, Missouri
Current Conditions -  °F | °C
As of 2:52 PM on Monday 24 Nov 2014 (Local Time) from KSGF Reporting Station
Broken Clouds Broken Clouds  
Wind Chill: 38°   Ceiling: 5000
Heat Index: 46°   Visibility: 10mi
Dew Point: 27°   Wind: 20mph
Humidity: 47%   Direction: 260°W
Pressure: 29.84"   Gusts: 29mph
Location:  37.63°N, 93.57°W
Report Text: KSGF 242052Z 26017G25KT 10SM BKN050 08/M03 A2984 RMK AO2 PK WND 27029/2011 SLP108 T00781028 53016
Loading
Personal Weather Stations






























Interactive Weather Map New forecast layout! Learn more

10-Day Weather Forecast

Advertisements
Track Severe Weather on mobile